Nefterudovoz-29m — UIMI — position and weather

sailwx.info

Track history (hours):
 
Tides and Currents Weather Stations Pressure Air Temp Water Temp Dewpoint Dewpoint Depression Visibility Wind Speed Wind Dir Waves Ship Positions

Nefterudovoz-29m

Last reported at 2017-Mar-25 10:33 UTC. Time now 2017-Mar-27 14:26 UTC.
Position N 45°33' E 036°49'.

Length 119 m; draft 2.5 m.

Type: Cargo ship. MMSI: 273345300.

Date/timePositionNaut miles runAvg speedWind from/ knotsBaromVisibWave heightAir tempDewpointWater temp
2017-Mar-25 10:33N 45°33' E 036°49'7 7.4
2017-Mar-25 09:33N 45°27' E 036°45'7 7.4
2017-Mar-25 08:33N 45°21' E 036°38'8 8.1
2017-Mar-25 07:33N 45°16' E 036°29'5 4.7
2017-Mar-25 06:33N 45°12' E 036°30'0 0.1
2017-Mar-25 05:34N 45°12' E 036°30'0 0.0
2017-Mar-25 04:34N 45°12' E 036°30'0 0.0
2017-Mar-25 03:33N 45°12' E 036°30'0 0.0
2017-Mar-25 02:33N 45°12' E 036°30'0 0.1
2017-Mar-25 01:33N 45°12' E 036°30'7 6.8
2017-Mar-25 00:32N 45°05' E 036°30'  
2017-Mar-21 15:33N 45°04' E 036°29'5 5.2
2017-Mar-21 14:33N 45°09' E 036°29'5 5.5
2017-Mar-21 13:33N 45°15' E 036°28'6 6.0
2017-Mar-21 12:33N 45°19' E 036°33'7 7.3
2017-Mar-21 11:33N 45°24' E 036°41'8 8.0
2017-Mar-21 10:34N 45°32' E 036°46'7 7.4
2017-Mar-21 09:33N 45°38' E 036°50'  
2017-Mar-18 08:10N 45°36' E 036°51'5 7.9
2017-Mar-18 07:33N 45°31' E 036°48'8 7.6
2017-Mar-18 06:34N 45°25' E 036°42'8 7.5
2017-Mar-18 05:33N 45°20' E 036°34'7 6.9
2017-Mar-18 04:33N 45°14' E 036°29'3 3.0
2017-Mar-18 03:34N 45°11' E 036°31'0 0.0
2017-Mar-18 02:33N 45°11' E 036°31'0 0.2
2017-Mar-18 01:33N 45°11' E 036°31'  
Track history (hours):
 
Tides and Currents Weather Stations Pressure Air Temp Water Temp Dewpoint Dewpoint Depression Visibility Wind Speed Wind Dir Waves Ship Positions

Nefterudovoz-29m

Last reported at 2017-Mar-25 10:33 UTC. Time now 2017-Mar-27 14:26 UTC.
Position N 45°33' E 036°49'.

Length 119 m; draft 2.5 m.

Type: Cargo ship. MMSI: 273345300.

Date/timePositionNaut miles runAvg speedWind from/ knotsBaromVisibWave heightAir tempDewpointWater temp
2017-Mar-25 10:33N 45°33' E 036°49'7 7.4
2017-Mar-25 09:33N 45°27' E 036°45'7 7.4
2017-Mar-25 08:33N 45°21' E 036°38'8 8.1
2017-Mar-25 07:33N 45°16' E 036°29'5 4.7
2017-Mar-25 06:33N 45°12' E 036°30'0 0.1
2017-Mar-25 05:34N 45°12' E 036°30'0 0.0
2017-Mar-25 04:34N 45°12' E 036°30'0 0.0
2017-Mar-25 03:33N 45°12' E 036°30'0 0.0
2017-Mar-25 02:33N 45°12' E 036°30'0 0.1
2017-Mar-25 01:33N 45°12' E 036°30'7 6.8
2017-Mar-25 00:32N 45°05' E 036°30'  
2017-Mar-21 15:33N 45°04' E 036°29'5 5.2
2017-Mar-21 14:33N 45°09' E 036°29'5 5.5
2017-Mar-21 13:33N 45°15' E 036°28'6 6.0
2017-Mar-21 12:33N 45°19' E 036°33'7 7.3
2017-Mar-21 11:33N 45°24' E 036°41'8 8.0
2017-Mar-21 10:34N 45°32' E 036°46'7 7.4
2017-Mar-21 09:33N 45°38' E 036°50'  
2017-Mar-18 08:10N 45°36' E 036°51'5 7.9
2017-Mar-18 07:33N 45°31' E 036°48'8 7.6
2017-Mar-18 06:34N 45°25' E 036°42'8 7.5
2017-Mar-18 05:33N 45°20' E 036°34'7 6.9
2017-Mar-18 04:33N 45°14' E 036°29'3 3.0
2017-Mar-18 03:34N 45°11' E 036°31'0 0.0
2017-Mar-18 02:33N 45°11' E 036°31'0 0.2
2017-Mar-18 01:33N 45°11' E 036°31'  

Dump ship's entire track history